createdAt,value
2023-01-27T00:00:10.333Z,51.111320
2023-01-27T00:01:10.287Z,51.111313
2023-01-27T00:02:10.849Z,51.111305
2023-01-27T00:03:11.474Z,51.111237
2023-01-27T00:04:09.914Z,51.111301
2023-01-27T00:05:11.589Z,51.111244
2023-01-27T00:06:10.723Z,51.111393
2023-01-27T00:07:10.668Z,51.111317
2023-01-27T00:08:10.835Z,51.111336
2023-01-27T00:09:11.576Z,51.111362
2023-01-27T00:10:11.624Z,51.111355
2023-01-27T00:13:59.708Z,51.111393
2023-01-27T00:16:30.506Z,51.111340
2023-01-27T00:20:56.654Z,51.111408
2023-01-27T00:21:56.702Z,51.111355
2023-01-27T00:22:56.454Z,51.111347
2023-01-27T00:23:56.500Z,51.111355
2023-01-27T00:24:56.464Z,51.111389
2023-01-27T00:25:58.002Z,51.111378
2023-01-27T00:26:57.124Z,51.111370
2023-01-27T00:27:57.225Z,51.111382
2023-01-27T00:28:56.616Z,51.111374
2023-01-27T00:33:56.290Z,51.111374
2023-01-27T00:34:57.870Z,51.111351
2023-01-27T00:47:26.021Z,51.111629
2023-01-27T00:49:57.839Z,51.111412
2023-01-27T00:50:24.579Z,51.111397
2023-01-27T00:51:25.811Z,51.111378
2023-01-27T00:52:24.280Z,51.111366
2023-01-27T00:53:26.147Z,51.111382
2023-01-27T00:54:24.294Z,51.111351
2023-01-27T00:58:58.089Z,51.111423
2023-01-27T00:59:58.268Z,51.111450
2023-01-27T01:00:57.888Z,51.111385
2023-01-27T01:01:57.244Z,51.111382
2023-01-27T01:02:57.242Z,51.111454
2023-01-27T01:04:11.118Z,51.111343
2023-01-27T01:04:57.514Z,51.111340
2023-01-27T01:05:56.962Z,51.111343
2023-01-27T01:06:56.335Z,51.111340
2023-01-27T01:07:57.108Z,51.111347
2023-01-27T01:08:56.347Z,51.111328
2023-01-27T01:09:56.528Z,51.111340
2023-01-27T01:10:57.315Z,51.111340
2023-01-27T01:11:56.126Z,51.111351
2023-01-27T01:12:56.409Z,51.111336
2023-01-27T01:13:56.521Z,51.111374
2023-01-27T01:14:57.616Z,51.111378
2023-01-27T01:15:56.210Z,51.111366
2023-01-27T01:16:57.024Z,51.111362
2023-01-27T01:17:56.891Z,51.111370
2023-01-27T01:18:56.693Z,51.111362
2023-01-27T01:19:55.859Z,51.111382
2023-01-27T01:20:56.011Z,51.111362
2023-01-27T01:21:57.422Z,51.111340
2023-01-27T01:22:56.935Z,51.111324
2023-01-27T01:23:56.135Z,51.111343
2023-01-27T01:24:56.915Z,51.111359
2023-01-27T01:25:56.149Z,51.111347
2023-01-27T01:26:56.882Z,51.111351
2023-01-27T01:27:56.877Z,51.111343
2023-01-27T01:28:55.956Z,51.111324
2023-01-27T01:29:56.365Z,51.111355
2023-01-27T01:30:56.090Z,51.111359
2023-01-27T01:31:55.823Z,51.111351
2023-01-27T01:32:57.210Z,51.111355
2023-01-27T01:34:19.735Z,51.111347
2023-01-27T01:34:56.099Z,51.111343
2023-01-27T01:35:55.979Z,51.111347
2023-01-27T01:36:55.852Z,51.111332
2023-01-27T01:37:57.240Z,51.111336
2023-01-27T01:38:56.332Z,51.111340
2023-01-27T01:39:56.165Z,51.111317
2023-01-27T01:40:57.032Z,51.111336
2023-01-27T01:41:55.930Z,51.111324
2023-01-27T01:42:55.949Z,51.111282
2023-01-27T01:43:55.743Z,51.111290
2023-01-27T01:44:56.052Z,51.111332
2023-01-27T01:45:56.010Z,51.111336
2023-01-27T01:46:56.096Z,51.111294
2023-01-27T01:47:56.643Z,51.111244
2023-01-27T01:48:56.698Z,51.111332
2023-01-27T01:49:56.045Z,51.111340
2023-01-27T01:50:56.201Z,51.111382
2023-01-27T01:51:55.825Z,51.111294
2023-01-27T01:52:55.809Z,51.111298
2023-01-27T01:53:55.849Z,51.111279
2023-01-27T01:54:56.186Z,51.111298
2023-01-27T01:55:55.648Z,51.111286
2023-01-27T01:56:55.605Z,51.111275
2023-01-27T01:57:55.932Z,51.111275
2023-01-27T01:58:55.734Z,51.111263
2023-01-27T01:59:55.720Z,51.111313
2023-01-27T02:00:56.114Z,51.111313
2023-01-27T02:01:56.517Z,51.111290
2023-01-27T02:02:55.846Z,51.111271
2023-01-27T02:03:56.211Z,51.111267
2023-01-27T02:04:55.701Z,51.111286
2023-01-27T02:05:55.568Z,51.111275
2023-01-27T02:06:56.057Z,51.111275
2023-01-27T02:07:55.783Z,51.111294
2023-01-27T02:08:56.029Z,51.111279
2023-01-27T02:09:56.543Z,51.111290
2023-01-27T02:10:56.248Z,51.111294
2023-01-27T02:11:56.365Z,51.111313
2023-01-27T02:12:55.616Z,51.111286
2023-01-27T02:13:55.522Z,51.111271
2023-01-27T02:14:55.831Z,51.111248
2023-01-27T02:15:55.657Z,51.111256
2023-01-27T02:16:55.652Z,51.111286
2023-01-27T02:17:55.682Z,51.111263
2023-01-27T02:18:55.397Z,51.111271
2023-01-27T02:19:55.308Z,51.111290
2023-01-27T02:20:55.496Z,51.111275
2023-01-27T02:21:55.503Z,51.111286
2023-01-27T02:22:55.443Z,51.111267
2023-01-27T02:23:55.467Z,51.111263
2023-01-27T02:24:55.350Z,51.111275
2023-01-27T02:25:55.286Z,51.111267
2023-01-27T02:26:55.339Z,51.111256
2023-01-27T02:27:55.162Z,51.111256
2023-01-27T02:28:55.734Z,51.111225
2023-01-27T02:29:55.439Z,51.111168
2023-01-27T02:30:55.456Z,51.111206
2023-01-27T02:31:55.208Z,51.111271
2023-01-27T02:32:55.146Z,51.111256
2023-01-27T02:33:55.124Z,51.111256
2023-01-27T02:34:55.271Z,51.111263
2023-01-27T02:35:55.771Z,51.111309
2023-01-27T02:36:54.995Z,51.111332
2023-01-27T02:37:55.457Z,51.111279
2023-01-27T02:38:55.603Z,51.111279
2023-01-27T02:39:55.733Z,51.111267
2023-01-27T02:40:55.450Z,51.111256
2023-01-27T02:41:55.708Z,51.111256
2023-01-27T02:42:55.103Z,51.111271
2023-01-27T02:43:55.338Z,51.111275
2023-01-27T02:44:55.328Z,51.111282
2023-01-27T02:45:56.005Z,51.111267
2023-01-27T02:46:55.342Z,51.111248
2023-01-27T02:51:23.537Z,51.111275
2023-01-27T02:52:23.418Z,51.111275
2023-01-27T02:53:22.608Z,51.111279
2023-01-27T02:54:22.567Z,51.111256
2023-01-27T02:55:22.608Z,51.111271
2023-01-27T02:56:22.611Z,51.111267
2023-01-27T02:57:22.707Z,51.111263
2023-01-27T02:58:22.446Z,51.111256
2023-01-27T02:59:22.727Z,51.111248
2023-01-27T03:00:23.808Z,51.111259
2023-01-27T03:01:23.085Z,51.111279
2023-01-27T03:02:22.606Z,51.111275
2023-01-27T03:03:22.582Z,51.111263
2023-01-27T03:04:22.689Z,51.111259
2023-01-27T03:05:23.036Z,51.111263
2023-01-27T03:06:23.256Z,51.111256
2023-01-27T03:07:22.637Z,51.111237
2023-01-27T03:08:22.377Z,51.111244
2023-01-27T03:09:22.899Z,51.111252
2023-01-27T03:10:23.174Z,51.111252
2023-01-27T03:11:22.652Z,51.111256
2023-01-27T03:12:23.492Z,51.111294
2023-01-27T03:13:22.743Z,51.111313
2023-01-27T03:14:23.062Z,51.111282
2023-01-27T03:15:22.715Z,51.111259
2023-01-27T03:16:22.782Z,51.111256
2023-01-27T03:18:55.707Z,51.111290
2023-01-27T03:19:24.174Z,51.111290
2023-01-27T03:20:22.886Z,51.111290
2023-01-27T03:21:22.732Z,51.111279
2023-01-27T03:22:22.686Z,51.111286
2023-01-27T03:23:22.612Z,51.111271
2023-01-27T03:24:22.664Z,51.111279
2023-01-27T03:25:22.555Z,51.111282
2023-01-27T03:26:22.291Z,51.111301
2023-01-27T03:27:22.393Z,51.111313
2023-01-27T03:28:22.489Z,51.111294
2023-01-27T03:29:22.447Z,51.111282
2023-01-27T03:30:22.143Z,51.111282
2023-01-27T03:31:22.254Z,51.111279
2023-01-27T03:32:22.018Z,51.111252
2023-01-27T03:33:22.182Z,51.111271
2023-01-27T03:34:22.170Z,51.111290
2023-01-27T03:35:22.010Z,51.111279
2023-01-27T03:36:22.045Z,51.111237
2023-01-27T03:37:21.911Z,51.111240
2023-01-27T03:38:22.009Z,51.111225
2023-01-27T03:39:21.950Z,51.111282
2023-01-27T03:40:21.933Z,51.111195
2023-01-27T03:41:21.806Z,51.111313
2023-01-27T03:42:21.841Z,51.111282
2023-01-27T03:43:21.887Z,51.111267
2023-01-27T03:44:21.689Z,51.111317
2023-01-27T03:45:21.850Z,51.111282
2023-01-27T03:46:21.853Z,51.111286
2023-01-27T03:47:21.776Z,51.111244
2023-01-27T03:48:22.805Z,51.111229
2023-01-27T03:49:21.759Z,51.111225
2023-01-27T03:50:21.856Z,51.111343
2023-01-27T03:51:21.768Z,51.111301
2023-01-27T03:52:21.656Z,51.111237
2023-01-27T03:53:21.699Z,51.111206
2023-01-27T03:54:21.683Z,51.111172
2023-01-27T03:55:21.601Z,51.111198
2023-01-27T03:56:21.705Z,51.111252
2023-01-27T03:57:21.610Z,51.111286
2023-01-27T03:58:21.679Z,51.111259
2023-01-27T03:59:21.655Z,51.111248
2023-01-27T04:00:21.664Z,51.111279
2023-01-27T04:01:21.735Z,51.111298
2023-01-27T04:02:21.777Z,51.111298
2023-01-27T04:03:21.693Z,51.111271
2023-01-27T04:04:21.507Z,51.111217
2023-01-27T04:05:21.787Z,51.111179
2023-01-27T04:06:21.568Z,51.111202
2023-01-27T04:07:21.610Z,51.111156
2023-01-27T04:08:21.580Z,51.111195
2023-01-27T04:09:21.376Z,51.111217
2023-01-27T04:10:21.571Z,51.111385
2023-01-27T04:11:21.595Z,51.111423
2023-01-27T04:12:21.535Z,51.111229
2023-01-27T04:13:21.506Z,51.111317
2023-01-27T04:14:21.510Z,51.111328
2023-01-27T04:15:21.530Z,51.111401
2023-01-27T04:16:21.813Z,51.111389
2023-01-27T04:17:21.613Z,51.111477
2023-01-27T04:18:21.570Z,51.111290
2023-01-27T04:19:21.592Z,51.111362
2023-01-27T04:20:21.577Z,51.111389
2023-01-27T04:21:21.588Z,51.111202
2023-01-27T04:22:21.541Z,51.111103
2023-01-27T04:23:21.736Z,51.111034
2023-01-27T04:24:21.868Z,51.111176
2023-01-27T04:25:21.341Z,51.111191
2023-01-27T04:26:21.458Z,51.111282
2023-01-27T04:27:21.434Z,51.111252
2023-01-27T04:28:37.242Z,51.111294
2023-01-27T04:29:23.509Z,51.111336
2023-01-27T04:30:21.699Z,51.111343
2023-01-27T04:31:21.401Z,51.111313
2023-01-27T04:32:21.689Z,51.111328
2023-01-27T04:33:28.949Z,51.111317
2023-01-27T04:34:21.457Z,51.111336
2023-01-27T04:35:25.298Z,51.111378
2023-01-27T04:36:23.552Z,51.111347
2023-01-27T04:37:21.431Z,51.111282
2023-01-27T04:38:21.377Z,51.111267
2023-01-27T04:39:21.568Z,51.111290
2023-01-27T04:40:21.368Z,51.111240
2023-01-27T04:41:21.331Z,51.111225
2023-01-27T04:42:21.286Z,51.111267
2023-01-27T04:43:21.347Z,51.111328
2023-01-27T04:44:21.370Z,51.111298
2023-01-27T04:45:21.341Z,51.111248
2023-01-27T04:46:21.353Z,51.111263
2023-01-27T04:47:21.300Z,51.111343
2023-01-27T04:48:21.547Z,51.111355
2023-01-27T04:49:21.401Z,51.111294
2023-01-27T04:50:21.663Z,51.111256
2023-01-27T04:51:21.403Z,51.111256
2023-01-27T04:52:21.517Z,51.111244
2023-01-27T04:53:21.275Z,51.111259
2023-01-27T04:54:21.351Z,51.111279
2023-01-27T04:55:21.253Z,51.111275
2023-01-27T04:56:21.507Z,51.111286
2023-01-27T04:57:21.314Z,51.111267
2023-01-27T04:58:21.217Z,51.111271
2023-01-27T04:59:21.335Z,51.111256
2023-01-27T05:00:21.216Z,51.111279
2023-01-27T05:01:21.296Z,51.111271
2023-01-27T05:02:21.326Z,51.111240
2023-01-27T05:03:21.304Z,51.111271
2023-01-27T05:04:21.244Z,51.111279
2023-01-27T05:05:21.131Z,51.111252
2023-01-27T05:06:21.254Z,51.111214
2023-01-27T05:07:21.346Z,51.111256
2023-01-27T05:08:21.271Z,51.111256
2023-01-27T05:09:21.312Z,51.111248
2023-01-27T05:10:21.248Z,51.111233
2023-01-27T05:11:21.305Z,51.111267
2023-01-27T05:12:21.176Z,51.111244
2023-01-27T05:13:21.182Z,51.111282
2023-01-27T05:14:21.579Z,51.111301
2023-01-27T05:15:21.987Z,51.111290
2023-01-27T05:16:21.356Z,51.111290
2023-01-27T05:17:21.150Z,51.111248
2023-01-27T05:18:21.339Z,51.111202
2023-01-27T05:19:21.313Z,51.111252
2023-01-27T05:20:21.204Z,51.111282
2023-01-27T05:21:21.263Z,51.111275
2023-01-27T05:22:21.180Z,51.111248
2023-01-27T05:23:21.274Z,51.111229
2023-01-27T05:24:21.257Z,51.111206
2023-01-27T05:25:21.083Z,51.111187
2023-01-27T05:26:21.304Z,51.111217
2023-01-27T05:27:21.403Z,51.111256
2023-01-27T05:28:21.294Z,51.111233
2023-01-27T05:29:21.067Z,51.111233
2023-01-27T05:30:21.013Z,51.111191
2023-01-27T05:31:21.164Z,51.111179
2023-01-27T05:32:21.147Z,51.111202
2023-01-27T05:33:21.154Z,51.111217
2023-01-27T05:34:21.128Z,51.111248
2023-01-27T05:35:20.997Z,51.111271
2023-01-27T05:36:20.974Z,51.111259
2023-01-27T05:37:21.220Z,51.111263
2023-01-27T05:38:21.325Z,51.111259
2023-01-27T05:39:21.058Z,51.111229
2023-01-27T05:40:21.065Z,51.111279
2023-01-27T05:41:21.107Z,51.111275
2023-01-27T05:42:21.194Z,51.111221
2023-01-27T05:43:21.142Z,51.111237
2023-01-27T05:44:20.907Z,51.111233
2023-01-27T05:45:21.208Z,51.111225
2023-01-27T05:46:20.937Z,51.111191
2023-01-27T05:47:21.005Z,51.111221
2023-01-27T05:48:20.792Z,51.111240
2023-01-27T05:49:20.906Z,51.111244
2023-01-27T05:50:20.988Z,51.111248
2023-01-27T05:51:37.467Z,51.111259
2023-01-27T05:52:21.812Z,51.111252
2023-01-27T05:53:20.944Z,51.111286
2023-01-27T05:54:21.100Z,51.111286
2023-01-27T05:55:21.390Z,51.111294
2023-01-27T05:56:20.897Z,51.111286
2023-01-27T05:57:20.979Z,51.111271
2023-01-27T05:58:20.927Z,51.111286
2023-01-27T05:59:21.027Z,51.111309
2023-01-27T06:00:20.780Z,51.111294
2023-01-27T06:01:20.722Z,51.111271
2023-01-27T10:51:44.600Z,51.111240
2023-01-27T10:52:44.433Z,51.111256
2023-01-27T10:53:44.569Z,51.111263
2023-01-27T10:54:45.788Z,51.111233
2023-01-27T11:51:35.822Z,51.111275
2023-01-27T11:52:02.333Z,51.111252
2023-01-27T11:56:17.877Z,51.111271
2023-01-27T11:57:13.428Z,51.111256
2023-01-27T12:00:50.702Z,51.111279
2023-01-27T12:06:13.185Z,51.111290
2023-01-27T12:06:36.309Z,51.111275
2023-01-27T12:07:36.356Z,51.111240
2023-01-27T12:15:22.603Z,51.111305
2023-01-27T12:37:30.358Z,51.111301
2023-01-27T12:38:30.355Z,51.111309
2023-01-27T12:39:30.311Z,51.111343
2023-01-27T12:40:30.242Z,51.111320
2023-01-27T12:41:30.117Z,51.111317
2023-01-27T12:42:30.235Z,51.111328
2023-01-27T12:43:30.033Z,51.111320
2023-01-27T12:44:30.002Z,51.111309
2023-01-27T12:45:30.142Z,51.111343
2023-01-27T12:46:30.210Z,51.111355
2023-01-27T12:47:30.107Z,51.111336
2023-01-27T12:48:30.753Z,51.111347
2023-01-27T12:49:30.138Z,51.111343
2023-01-27T12:50:30.070Z,51.111355
2023-01-27T12:51:30.117Z,51.111332
2023-01-27T12:52:30.241Z,51.111340
2023-01-27T12:53:30.129Z,51.111332
2023-01-27T12:54:32.160Z,51.111275
2023-01-27T12:55:30.149Z,51.111263
2023-01-27T12:56:30.226Z,51.111275
2023-01-27T12:57:30.042Z,51.111259
2023-01-27T12:58:30.241Z,51.111233
2023-01-27T12:59:30.131Z,51.111221
2023-01-27T13:00:30.012Z,51.111267
2023-01-27T13:01:30.205Z,51.111309
2023-01-27T13:02:29.951Z,51.111256
2023-01-27T13:03:30.186Z,51.111282
2023-01-27T13:04:29.980Z,51.111240
2023-01-27T13:05:30.101Z,51.111279
2023-01-27T13:06:30.072Z,51.111359
2023-01-27T13:07:29.901Z,51.111309
2023-01-27T13:08:29.955Z,51.111286
2023-01-27T13:09:29.994Z,51.111294
2023-01-27T13:10:29.973Z,51.111305
2023-01-27T13:11:29.917Z,51.111290
2023-01-27T13:12:29.786Z,51.111313
2023-01-27T13:13:29.884Z,51.111320
2023-01-27T13:14:29.989Z,51.111313
2023-01-27T13:15:29.900Z,51.111317
2023-01-27T13:16:30.930Z,51.111313
2023-01-27T13:17:29.892Z,51.111317
2023-01-27T13:18:30.020Z,51.111317
2023-01-27T13:19:29.885Z,51.111286
2023-01-27T13:20:30.052Z,51.111294
2023-01-27T13:21:29.831Z,51.111313
2023-01-27T13:22:30.040Z,51.111301
2023-01-27T13:23:29.946Z,51.111298
2023-01-27T13:24:29.974Z,51.111298
2023-01-27T13:25:29.843Z,51.111290
2023-01-27T13:26:29.849Z,51.111324
2023-01-27T13:27:29.817Z,51.111313
2023-01-27T13:28:31.780Z,51.111301
2023-01-27T13:29:29.778Z,51.111347
2023-01-27T13:30:29.736Z,51.111347
2023-01-27T13:31:29.743Z,51.111305
2023-01-27T13:32:29.650Z,51.111271
2023-01-27T13:33:29.686Z,51.111263
2023-01-27T13:34:29.680Z,51.111259
2023-01-27T13:35:29.642Z,51.111282
2023-01-27T13:36:29.911Z,51.111160
2023-01-27T13:37:29.643Z,51.111122
2023-01-27T13:38:29.602Z,51.111092
2023-01-27T13:39:29.574Z,51.111179
2023-01-27T13:40:29.622Z,51.111217
2023-01-27T13:41:29.612Z,51.111340
2023-01-27T13:42:29.645Z,51.111263
2023-01-27T13:43:29.578Z,51.111217
2023-01-27T13:44:29.580Z,51.111259
2023-01-27T13:45:29.710Z,51.111244
2023-01-27T13:46:29.641Z,51.111256
2023-01-27T13:47:29.745Z,51.111244
2023-01-27T13:48:29.672Z,51.111286
2023-01-27T13:49:29.638Z,51.111240
2023-01-27T13:50:29.706Z,51.111248
2023-01-27T13:51:29.740Z,51.111275
2023-01-27T13:52:29.574Z,51.111248
2023-01-27T13:53:29.751Z,51.111244
2023-01-27T13:54:29.625Z,51.111217
2023-01-27T13:55:29.613Z,51.111206
2023-01-27T13:56:29.690Z,51.111244
2023-01-27T13:57:29.673Z,51.111237
2023-01-27T13:58:30.476Z,51.111214
2023-01-27T13:59:30.079Z,51.111217
2023-01-27T14:00:29.792Z,51.111233
2023-01-27T14:01:30.021Z,51.111217
2023-01-27T14:02:29.471Z,51.111233
2023-01-27T14:03:30.708Z,51.111244
2023-01-27T14:04:29.611Z,51.111275
2023-01-27T14:05:29.653Z,51.111279
2023-01-27T14:14:24.802Z,51.111279
2023-01-27T14:23:17.222Z,51.111275
2023-01-27T14:39:40.097Z,51.111233
